Time;durP1;ratioP1;P1;durP2;ratioP2;P2;SDS_P1;SDS_P2;PMS_P1;PMS_P2;Temp;Humidity;BMP_temperature;BMP_pressure;BME280_temperature;BME280_humidity;BME280_pressure;Samples;Min_cycle;Max_cycle;Signal;HPM_P1;HPM_P2
2023/03/05 00:02:03;;;;;;;;;36.00;30.67;;;;;8.38;100.00;101610.22;4952117;28;44749;-84
2023/03/05 00:04:28;;;;;;;;;44.33;36.00;;;;;8.46;100.00;101613.16;4969862;28;45350;-83
2023/03/05 00:06:54;;;;;;;;;33.67;32.33;;;;;8.53;100.00;101624.91;4971497;28;44708;-84
2023/03/05 00:09:20;;;;;;;;;30.33;28.33;;;;;8.54;100.00;101617.03;4955216;28;47482;-84
2023/03/05 00:11:47;;;;;;;;;28.33;28.33;;;;;8.58;100.00;101608.34;4954547;28;45235;-84
2023/03/05 00:14:12;;;;;;;;;38.00;34.00;;;;;8.53;100.00;101604.59;4970698;28;45677;-83
2023/03/05 00:16:38;;;;;;;;;37.33;30.00;;;;;8.60;100.00;101614.59;4937862;28;45405;-83
2023/03/05 00:19:04;;;;;;;;;32.33;32.33;;;;;8.62;100.00;101617.28;4971236;28;45496;-84
2023/03/05 00:21:36;;;;;;;;;30.00;28.67;;;;;8.64;100.00;101604.97;4970117;28;45850;-83
2023/03/05 00:24:05;;;;;;;;;28.00;28.00;;;;;8.60;100.00;101601.34;4969603;28;44751;-83
2023/03/05 00:26:35;;;;;;;;;27.00;23.33;;;;;8.64;100.00;101604.09;4951968;28;45542;-84
2023/03/05 00:29:01;;;;;;;;;34.67;31.67;;;;;8.56;100.00;101610.03;4967540;28;47052;-82
2023/03/05 00:31:29;;;;;;;;;23.33;22.00;;;;;8.61;100.00;101607.53;4968065;28;45417;-83
2023/03/05 00:33:58;;;;;;;;;32.00;31.33;;;;;8.58;100.00;101612.72;4968162;28;45428;-85
2023/03/05 00:36:25;;;;;;;;;29.67;24.00;;;;;8.56;100.00;101614.41;4969345;28;45404;-84
2023/03/05 00:38:50;;;;;;;;;35.00;33.00;;;;;8.58;100.00;101624.25;4969488;28;46315;-84
2023/03/05 00:41:54;;;;;;;;;25.00;22.67;;;;;8.67;100.00;101609.50;4967525;28;44711;-84
2023/03/05 00:44:25;;;;;;;;;30.33;29.33;;;;;8.60;100.00;101611.94;4956695;28;45399;-84
2023/03/05 00:46:54;;;;;;;;;32.33;31.00;;;;;8.60;100.00;101606.66;4929962;28;45687;-84
2023/03/05 00:49:19;;;;;;;;;35.33;34.00;;;;;8.60;100.00;101596.03;4931148;28;47706;-84
2023/03/05 00:51:46;;;;;;;;;29.67;27.00;;;;;8.63;100.00;101589.94;4914574;28;44805;-84
2023/03/05 00:54:11;;;;;;;;;31.33;26.67;;;;;8.61;100.00;101597.81;4918412;28;45705;-84
2023/03/05 00:56:37;;;;;;;;;27.33;25.33;;;;;8.57;100.00;101593.25;4951417;28;45373;-83
2023/03/05 00:59:02;;;;;;;;;26.67;26.00;;;;;8.58;100.00;101592.44;4935267;28;46667;-84
2023/03/05 01:01:28;;;;;;;;;43.00;33.00;;;;;8.53;100.00;101587.81;4935150;28;45459;-84
2023/03/05 01:03:56;;;;;;;;;34.67;33.00;;;;;8.54;100.00;101584.28;4951756;28;45488;-84
2023/03/05 01:06:22;;;;;;;;;29.33;29.00;;;;;8.50;100.00;101585.91;4934590;28;44866;-84
2023/03/05 01:08:48;;;;;;;;;43.33;34.00;;;;;8.53;100.00;101583.41;4933352;28;46978;-84
2023/03/05 01:11:15;;;;;;;;;43.00;36.33;;;;;8.55;100.00;101576.41;4933631;28;44735;-84
2023/03/05 01:13:41;;;;;;;;;34.00;31.67;;;;;8.52;100.00;101584.22;4933755;28;44814;-83
2023/03/05 01:16:07;;;;;;;;;36.67;31.00;;;;;8.53;100.00;101585.16;4934572;28;45476;-84
2023/03/05 01:18:33;;;;;;;;;35.33;35.33;;;;;8.42;100.00;101574.13;4949744;28;47039;-84
2023/03/05 01:20:58;;;;;;;;;32.00;30.33;;;;;8.46;100.00;101580.47;4935154;28;45625;-84
2023/03/05 01:23:24;;;;;;;;;35.33;29.33;;;;;8.48;100.00;101584.97;4932767;28;44954;-84
2023/03/05 01:25:54;;;;;;;;;37.67;31.00;;;;;8.53;100.00;101580.75;4933402;28;45461;-84
2023/03/05 01:28:20;;;;;;;;;35.67;30.67;;;;;8.47;100.00;101575.22;4933546;28;47015;-84
2023/03/05 01:34:07;;;;;;;;;21.67;21.00;;;;;8.44;100.00;101561.84;4952254;28;44901;-84
2023/03/05 01:36:34;;;;;;;;;33.00;30.00;;;;;8.49;100.00;101562.94;4934771;28;45538;-84
2023/03/05 01:39:00;;;;;;;;;34.33;32.00;;;;;8.43;100.00;101549.44;4935361;28;47289;-83
2023/03/05 01:41:25;;;;;;;;;34.00;30.67;;;;;8.48;100.00;101544.31;4950012;28;45740;-84
2023/03/05 01:43:53;;;;;;;;;31.33;29.33;;;;;8.50;100.00;101542.59;4938100;28;45440;-84
2023/03/05 01:46:35;;;;;;;;;35.67;34.33;;;;;8.56;100.00;101541.09;4955567;28;45484;-84
2023/03/05 01:49:18;;;;;;;;;32.67;29.67;;;;;8.57;100.00;101548.19;4956119;28;47297;-84
2023/03/05 01:51:52;;;;;;;;;33.33;31.00;;;;;8.56;100.00;101540.16;4954944;28;45786;-84
2023/03/05 01:54:24;;;;;;;;;29.33;29.33;;;;;8.52;100.00;101538.25;4971659;28;45349;-84
2023/03/05 01:56:51;;;;;;;;;33.00;31.00;;;;;8.48;100.00;101536.34;4955309;28;45480;-84
2023/03/05 01:59:19;;;;;;;;;31.67;28.33;;;;;8.47;100.00;101535.47;4954639;28;47693;-83
2023/03/05 02:01:49;;;;;;;;;34.33;34.33;;;;;8.47;100.00;101526.63;4955856;28;45376;-83
2023/03/05 02:04:18;;;;;;;;;33.33;31.33;;;;;8.49;100.00;101533.75;4972403;28;45934;-83
2023/03/05 02:06:44;;;;;;;;;35.67;32.00;;;;;8.32;100.00;101522.53;4956106;28;44876;-84
2023/03/05 02:09:10;;;;;;;;;33.00;28.67;;;;;8.30;100.00;101520.66;4957866;28;48422;-84
2023/03/05 02:11:36;;;;;;;;;32.67;27.67;;;;;8.31;100.00;101512.78;4956690;28;45353;-84
2023/03/05 02:14:04;;;;;;;;;36.67;29.33;;;;;8.40;100.00;101523.72;4974183;28;44748;-84
2023/03/05 02:16:34;;;;;;;;;38.33;33.67;;;;;8.38;100.00;101519.19;4957039;28;45404;-84
2023/03/05 02:19:04;;;;;;;;;33.67;32.33;;;;;8.40;100.00;101507.81;4969834;28;47297;-84
2023/03/05 02:21:45;;;;;;;;;34.67;29.33;;;;;8.49;100.00;101517.84;4971425;28;45555;-84
2023/03/05 02:24:17;;;;;;;;;37.67;33.00;;;;;8.43;100.00;101493.78;4971250;28;45385;-84
2023/03/05 02:30:06;;;;;;;;;38.33;33.33;;;;;8.46;100.00;101492.97;4970989;28;46383;-84
2023/03/05 02:32:32;;;;;;;;;28.00;26.33;;;;;8.46;100.00;101491.22;4953252;28;45511;-84
2023/03/05 02:34:57;;;;;;;;;23.00;23.00;;;;;8.39;100.00;101483.88;4968236;28;45374;-85
2023/03/05 02:37:23;;;;;;;;;41.33;33.33;;;;;8.44;100.00;101492.03;4951395;28;45431;-84
2023/03/05 02:39:48;;;;;;;;;30.00;29.00;;;;;8.41;100.00;101491.06;4952597;28;47312;-83
2023/03/05 02:42:13;;;;;;;;;35.33;30.33;;;;;8.35;100.00;101477.56;4970439;28;45416;-83
2023/03/05 02:44:45;;;;;;;;;29.00;29.00;;;;;8.46;100.00;101475.31;4950673;28;45480;-83
2023/03/05 02:47:11;;;;;;;;;33.67;31.00;;;;;8.35;100.00;101466.97;4965593;28;45741;-83
2023/03/05 02:49:36;;;;;;;;;38.67;33.67;;;;;8.43;100.00;101477.88;4950729;28;46823;-83
2023/03/05 02:52:03;;;;;;;;;34.67;33.00;;;;;8.42;100.00;101460.16;4934680;28;45487;-84
2023/03/05 02:54:28;;;;;;;;;33.00;29.67;;;;;8.32;100.00;101455.34;4948194;28;45638;-83
2023/03/05 02:56:54;;;;;;;;;32.67;31.00;;;;;8.35;100.00;101466.09;4931584;28;45690;-83
2023/03/05 02:59:19;;;;;;;;;37.00;31.33;;;;;8.33;100.00;101458.06;4967596;28;48116;-84
2023/03/05 03:01:44;;;;;;;;;28.00;28.00;;;;;8.29;100.00;101456.16;4969619;28;45401;-83
2023/03/05 03:04:11;;;;;;;;;29.33;26.33;;;;;8.40;100.00;101454.78;4987350;28;45599;-83
2023/03/05 03:06:36;;;;;;;;;34.00;31.33;;;;;8.38;100.00;101450.25;4989484;28;45732;-84
2023/03/05 03:09:02;;;;;;;;;31.00;28.33;;;;;8.36;100.00;101446.66;4987216;28;46325;-84
2023/03/05 03:11:27;;;;;;;;;34.67;33.33;;;;;8.31;100.00;101445.63;4987880;28;44722;-84
2023/03/05 03:13:53;;;;;;;;;35.33;27.67;;;;;8.28;100.00;101438.47;4970893;28;45009;-84
2023/03/05 03:16:18;;;;;;;;;34.33;29.67;;;;;8.33;100.00;101436.88;4986492;28;45395;-84
2023/03/05 03:18:46;;;;;;;;;23.33;19.00;;;;;8.32;100.00;101435.09;4970565;28;46673;-84
2023/03/05 03:21:24;;;;;;;;;40.33;33.67;;;;;8.41;100.00;101439.81;4968594;28;45461;-84
2023/03/05 03:23:50;;;;;;;;;32.67;28.67;;;;;8.39;100.00;101433.53;4969542;28;45945;-84
2023/03/05 03:26:16;;;;;;;;;29.67;29.33;;;;;8.33;100.00;101426.25;4985417;28;44901;-84
2023/03/05 03:28:43;;;;;;;;;36.33;35.00;;;;;8.41;100.00;101435.41;4970134;28;48243;-84
2023/03/05 03:31:08;;;;;;;;;36.33;31.33;;;;;8.40;100.00;101433.59;4970312;28;45417;-84
2023/03/05 03:33:34;;;;;;;;;49.00;37.00;;;;;8.40;100.00;101425.63;4987403;28;45401;-84
2023/03/05 03:35:59;;;;;;;;;39.00;33.00;;;;;8.32;100.00;101418.25;4970146;28;45379;-84
2023/03/05 03:38:25;;;;;;;;;33.33;28.33;;;;;8.28;100.00;101411.97;4968689;28;47202;-84
2023/03/05 03:40:50;;;;;;;;;40.33;35.33;;;;;8.19;100.00;101412.53;4988695;28;45618;-83
2023/03/05 03:43:16;;;;;;;;;44.00;36.33;;;;;8.19;100.00;101411.66;4988233;28;45432;-83
2023/03/05 03:45:43;;;;;;;;;45.33;36.67;;;;;8.27;100.00;101426.06;4969194;28;45487;-83
2023/03/05 03:48:09;;;;;;;;;38.33;32.67;;;;;8.20;100.00;101408.13;4987492;28;46609;-83
2023/03/05 03:50:38;;;;;;;;;32.00;31.00;;;;;8.26;100.00;101403.06;4953977;28;45986;-84
2023/03/05 03:53:03;;;;;;;;;38.00;29.00;;;;;8.26;100.00;101407.44;4987465;28;45635;-84
2023/03/05 03:55:29;;;;;;;;;36.33;28.00;;;;;8.27;100.00;101409.25;4988035;28;45576;-83
2023/03/05 03:57:54;;;;;;;;;39.00;36.00;;;;;8.24;100.00;101402.13;4970502;28;45602;-84
2023/03/05 04:00:21;;;;;;;;;36.33;32.67;;;;;8.27;100.00;101409.25;4987406;28;45541;-84
2023/03/05 04:02:46;;;;;;;;;39.67;33.33;;;;;8.10;100.00;101409.59;4971306;28;45542;-85
2023/03/05 04:05:12;;;;;;;;;28.33;26.33;;;;;8.10;100.00;101399.00;4989268;28;45503;-84
2023/03/05 04:07:37;;;;;;;;;34.00;30.67;;;;;8.11;100.00;101394.59;4986786;28;46214;-84
2023/03/05 04:10:05;;;;;;;;;40.00;34.00;;;;;8.11;100.00;101408.72;4988396;28;45220;-84
2023/03/05 04:12:31;;;;;;;;;33.67;33.33;;;;;8.04;100.00;101397.84;4971597;28;45461;-85
2023/03/05 04:15:03;;;;;;;;;36.00;30.67;;;;;8.12;100.00;101399.94;4988629;28;45391;-83
2023/03/05 04:17:28;;;;;;;;;34.33;28.33;;;;;8.10;100.00;101398.06;4969925;28;47138;-83
2023/03/05 04:19:54;;;;;;;;;30.00;28.67;;;;;8.11;100.00;101390.19;4969193;28;45412;-83
2023/03/05 04:22:19;;;;;;;;;37.33;32.33;;;;;8.07;100.00;101390.91;4969569;28;45681;-84
2023/03/05 04:24:44;;;;;;;;;34.00;26.33;;;;;8.06;100.00;101394.44;4988578;28;45394;-84
2023/03/05 04:27:11;;;;;;;;;35.00;31.33;;;;;8.01;100.00;101374.81;4971330;28;46823;-84
2023/03/05 04:29:37;;;;;;;;;33.33;28.00;;;;;8.09;100.00;101393.63;4987544;28;45927;-83
2023/03/05 04:32:03;;;;;;;;;31.67;30.00;;;;;8.10;100.00;101391.03;4969067;28;45478;-83
2023/03/05 04:34:28;;;;;;;;;32.33;29.00;;;;;8.06;100.00;101388.22;4969268;28;45909;-83
2023/03/05 04:36:54;;;;;;;;;39.00;34.00;;;;;8.05;100.00;101379.38;4969987;28;46899;-84
2023/03/05 04:39:25;;;;;;;;;36.00;27.33;;;;;8.08;100.00;101387.44;4970350;28;45494;-83
2023/03/05 04:41:50;;;;;;;;;34.33;30.00;;;;;8.06;100.00;101386.50;4982228;28;45396;-83
2023/03/05 04:44:20;;;;;;;;;37.00;34.00;;;;;8.07;100.00;101377.69;4932032;28;45550;-83
2023/03/05 04:46:46;;;;;;;;;40.00;30.33;;;;;8.01;100.00;101372.16;4930569;28;46956;-83
2023/03/05 04:49:12;;;;;;;;;38.00;32.33;;;;;8.09;100.00;101367.13;4932722;28;45835;-84
2023/03/05 04:51:38;;;;;;;;;31.67;29.33;;;;;8.04;100.00;101367.00;4937008;28;45427;-83
2023/03/05 04:54:03;;;;;;;;;34.67;30.00;;;;;8.11;100.00;101376.03;4953648;28;45356;-83
2023/03/05 04:56:30;;;;;;;;;34.67;31.00;;;;;8.08;100.00;101366.25;4969587;28;46062;-84
2023/03/05 04:58:55;;;;;;;;;34.67;29.67;;;;;8.13;100.00;101372.59;4951632;28;45375;-83
2023/03/05 05:01:21;;;;;;;;;31.33;28.00;;;;;8.16;100.00;101367.41;4967398;28;45310;-83
2023/03/05 05:03:46;;;;;;;;;22.33;19.67;;;;;8.10;100.00;101353.97;4949515;28;45823;-82
2023/03/05 05:06:12;;;;;;;;;30.00;26.00;;;;;8.13;100.00;101359.34;4966794;28;45400;-84
2023/03/05 05:08:38;;;;;;;;;28.67;25.00;;;;;8.17;100.00;101363.91;4965492;28;45456;-84
2023/03/05 05:11:06;;;;;;;;;35.00;32.00;;;;;7.98;100.00;101350.91;4951412;28;45830;-84
2023/03/05 05:13:32;;;;;;;;;37.67;32.67;;;;;7.81;100.00;101343.22;4951388;28;45568;-84
2023/03/05 05:15:57;;;;;;;;;37.33;29.33;;;;;7.73;100.00;101349.13;4968524;28;45474;-84
2023/03/05 05:18:24;;;;;;;;;33.33;29.33;;;;;7.66;100.00;101344.47;4970698;28;45491;-84
2023/03/05 05:20:50;;;;;;;;;30.33;25.33;;;;;7.72;100.00;101349.97;4956365;28;45903;-84
2023/03/05 05:23:16;;;;;;;;;32.67;28.00;;;;;7.67;100.00;101344.50;4956955;28;45384;-85
2023/03/05 05:25:42;;;;;;;;;31.33;28.00;;;;;7.66;100.00;101342.72;4971235;28;45262;-83
2023/03/05 05:28:08;;;;;;;;;33.00;31.67;;;;;7.71;100.00;101346.41;4972069;28;44802;-83
2023/03/05 05:30:34;;;;;;;;;35.33;28.33;;;;;7.67;100.00;101333.91;4973262;28;45437;-84
2023/03/05 05:33:06;;;;;;;;;37.00;35.00;;;;;7.67;100.00;101331.25;4973773;28;45455;-84
2023/03/05 05:35:32;;;;;;;;;23.00;23.00;;;;;7.76;100.00;101338.66;4952711;28;46992;-83
2023/03/05 05:37:57;;;;;;;;;33.00;27.00;;;;;7.70;100.00;101331.38;4968679;28;45349;-83
2023/03/05 05:40:23;;;;;;;;;31.33;27.67;;;;;7.70;100.00;101328.75;4971680;28;45455;-84
2023/03/05 05:42:48;;;;;;;;;34.33;31.33;;;;;7.71;100.00;101335.81;4972228;28;45381;-83
2023/03/05 05:45:13;;;;;;;;;23.00;20.33;;;;;7.77;100.00;101338.69;4969862;28;45415;-84
2023/03/05 05:47:39;;;;;;;;;26.67;24.67;;;;;7.75;100.00;101329.78;4969510;28;45734;-82
2023/03/05 05:50:06;;;;;;;;;33.67;30.33;;;;;7.75;100.00;101329.78;4953829;28;45451;-83
2023/03/05 05:52:32;;;;;;;;;24.33;24.00;;;;;7.75;100.00;101324.50;4952491;28;45456;-84
2023/03/05 05:54:58;;;;;;;;;34.67;28.00;;;;;7.80;100.00;101335.25;4970563;28;45408;-84
2023/03/05 05:57:25;;;;;;;;;31.00;25.67;;;;;7.72;100.00;101329.69;4969935;28;45437;-84
2023/03/05 05:59:52;;;;;;;;;38.00;31.33;;;;;7.78;100.00;101324.59;4970594;28;44791;-84
2023/03/05 06:02:17;;;;;;;;;33.00;26.67;;;;;7.85;100.00;101330.13;4953585;28;44760;-83
2023/03/05 06:04:42;;;;;;;;;33.67;29.00;;;;;7.78;100.00;101321.97;4939562;28;47716;-84
2023/03/05 06:07:08;;;;;;;;;28.33;25.33;;;;;7.77;100.00;101317.50;4953418;28;45245;-83
2023/03/05 06:09:34;;;;;;;;;27.00;26.33;;;;;7.82;100.00;101326.50;4970292;28;45294;-84
2023/03/05 06:12:00;;;;;;;;;32.00;27.67;;;;;7.81;100.00;101319.41;4953392;28;45527;-83
2023/03/05 06:14:25;;;;;;;;;31.67;27.00;;;;;7.93;100.00;101333.94;4969903;28;46328;-85
2023/03/05 06:16:51;;;;;;;;;32.33;28.67;;;;;7.88;100.00;101319.66;4971189;28;45457;-83
2023/03/05 06:19:16;;;;;;;;;24.00;22.33;;;;;7.88;100.00;101319.66;4953150;28;45431;-83
2023/03/05 06:21:42;;;;;;;;;34.00;28.33;;;;;7.86;100.00;101321.31;4971468;28;45437;-84
2023/03/05 06:24:09;;;;;;;;;32.00;27.00;;;;;7.88;100.00;101327.59;4953915;28;46806;-84
2023/03/05 06:26:35;;;;;;;;;36.67;27.33;;;;;7.81;100.00;101321.16;4951633;28;45401;-83
2023/03/05 06:29:01;;;;;;;;;25.33;25.33;;;;;7.70;100.00;101307.56;4968741;28;45409;-84
2023/03/05 06:31:28;;;;;;;;;27.00;23.67;;;;;7.80;100.00;101328.22;4971361;28;45402;-84
2023/03/05 06:33:57;;;;;;;;;31.00;23.00;;;;;7.86;100.00;101327.53;4953390;28;47153;-84
2023/03/05 06:36:24;;;;;;;;;24.33;21.33;;;;;7.82;100.00;101315.03;4967936;28;45836;-85
2023/03/05 06:38:51;;;;;;;;;21.67;18.67;;;;;7.85;100.00;101317.75;4968227;28;45460;-85
2023/03/05 06:41:19;;;;;;;;;29.33;26.00;;;;;7.94;100.00;101319.84;4969106;28;45342;-84
2023/03/05 06:43:46;;;;;;;;;23.00;18.33;;;;;7.95;100.00;101325.19;4970182;28;45441;-84
2023/03/05 06:46:21;;;;;;;;;24.33;21.33;;;;;7.93;100.00;101321.56;4953077;28;45460;-84
2023/03/05 06:48:48;;;;;;;;;28.33;23.33;;;;;7.89;100.00;101318.78;4966578;28;45443;-84
2023/03/05 06:51:29;;;;;;;;;23.33;23.00;;;;;8.01;100.00;101325.38;4951121;28;45677;-84
2023/03/05 06:53:58;;;;;;;;;27.00;25.33;;;;;7.91;100.00;101310.03;4930678;28;46935;-85
2023/03/05 06:56:23;;;;;;;;;19.33;18.00;;;;;7.95;100.00;101321.63;4948364;28;45408;-83
2023/03/05 06:58:51;;;;;;;;;23.67;22.00;;;;;8.04;100.00;101316.66;4949158;28;45406;-83
2023/03/05 07:01:17;;;;;;;;;21.00;19.67;;;;;7.95;100.00;101300.44;4949149;28;45406;-83
2023/03/05 07:03:43;;;;;;;;;22.67;21.67;;;;;8.00;100.00;101318.31;4947299;28;45413;-82
2023/03/05 07:06:16;;;;;;;;;27.33;19.00;;;;;8.07;100.00;101306.16;4930903;28;45439;-84
2023/03/05 07:08:43;;;;;;;;;18.67;17.67;;;;;8.09;100.00;101312.41;4932125;28;45382;-84
2023/03/05 07:11:15;;;;;;;;;20.67;15.33;;;;;8.15;100.00;101309.94;4916509;28;45965;-84
2023/03/05 07:13:42;;;;;;;;;23.33;22.00;;;;;8.16;100.00;101310.84;4950259;28;46075;-85
2023/03/05 07:16:14;;;;;;;;;24.33;18.67;;;;;8.26;100.00;101306.75;4953151;28;45408;-84
2023/03/05 07:18:39;;;;;;;;;21.67;21.33;;;;;8.18;100.00;101310.06;4933912;28;45450;-85
2023/03/05 07:21:06;;;;;;;;;24.00;19.00;;;;;8.23;100.00;101307.56;4933149;28;45429;-85
2023/03/05 07:23:33;;;;;;;;;19.33;17.00;;;;;8.24;100.00;101319.06;4950565;28;46376;-84
2023/03/05 07:26:04;;;;;;;;;19.00;15.67;;;;;8.22;100.00;101311.06;4948704;28;45634;-85
2023/03/05 07:29:26;;;;;;;;;19.00;17.33;;;;;8.21;100.00;101315.44;4932857;28;45223;-84
2023/03/05 07:31:52;;;;;;;;;20.67;18.33;;;;;8.12;100.00;101320.47;4931834;28;45442;-84
2023/03/05 07:34:18;;;;;;;;;21.33;20.00;;;;;8.12;100.00;101325.75;4950554;28;45722;-84
2023/03/05 07:36:43;;;;;;;;;15.33;15.33;;;;;8.12;100.00;101314.25;4932965;28;45831;-85
2023/03/05 07:39:11;;;;;;;;;22.33;21.33;;;;;8.21;100.00;101322.50;4932648;28;45900;-84
2023/03/05 07:41:38;;;;;;;;;21.00;17.00;;;;;8.20;100.00;101324.28;4950148;28;45579;-84
2023/03/05 07:44:04;;;;;;;;;26.33;20.33;;;;;8.22;100.00;101321.69;4931883;28;47114;-85
2023/03/05 07:46:32;;;;;;;;;20.67;20.67;;;;;8.28;100.00;101327.19;4966837;28;45529;-83
2023/03/05 07:48:58;;;;;;;;;21.33;20.67;;;;;8.19;100.00;101324.22;4934430;28;45482;-83
2023/03/05 07:51:25;;;;;;;;;25.33;20.33;;;;;8.28;100.00;101320.94;4951728;28;44899;-83
2023/03/05 07:53:52;;;;;;;;;21.67;17.67;;;;;8.25;100.00;101316.47;4968048;28;45421;-84
2023/03/05 07:56:34;;;;;;;;;18.00;17.00;;;;;8.26;100.00;101310.31;4967217;28;45372;-84
2023/03/05 07:59:01;;;;;;;;;22.67;18.67;;;;;8.25;100.00;101321.75;4968948;28;45336;-84
2023/03/05 08:01:29;;;;;;;;;30.33;23.33;;;;;8.20;100.00;101312.75;4951530;28;45440;-83
2023/03/05 08:03:57;;;;;;;;;22.33;16.33;;;;;8.25;100.00;101316.47;4966893;28;47482;-85
2023/03/05 08:06:25;;;;;;;;;23.67;19.33;;;;;8.25;100.00;101315.56;4952049;28;45116;-84
2023/03/05 08:08:50;;;;;;;;;24.00;20.67;;;;;8.22;100.00;101316.38;4969857;28;44732;-83
2023/03/05 08:11:16;;;;;;;;;19.00;18.33;;;;;8.27;100.00;101320.06;4951087;28;45463;-84
2023/03/05 08:13:43;;;;;;;;;21.67;21.67;;;;;8.28;100.00;101311.28;4951968;28;46799;-84
2023/03/05 08:16:12;;;;;;;;;20.33;19.00;;;;;8.35;100.00;101307.97;4969177;28;45416;-84
2023/03/05 08:18:38;;;;;;;;;17.33;14.67;;;;;8.49;100.00;101316.38;4951111;28;45457;-84
2023/03/05 08:21:04;;;;;;;;;26.33;23.00;;;;;8.46;100.00;101308.31;4950808;28;45489;-84
2023/03/05 08:23:30;;;;;;;;;13.00;11.00;;;;;8.40;100.00;101295.75;4968897;28;46083;-84
2023/03/05 08:25:55;;;;;;;;;20.33;20.33;;;;;8.47;100.00;101301.28;4968698;28;45455;-83
2023/03/05 08:28:21;;;;;;;;;21.67;20.00;;;;;8.56;100.00;101296.25;4968161;28;45454;-84
2023/03/05 08:30:48;;;;;;;;;25.67;20.33;;;;;8.56;100.00;101297.19;4970212;28;45436;-84
2023/03/05 08:33:16;;;;;;;;;23.00;20.67;;;;;8.59;100.00;101297.25;4967993;28;45537;-83
2023/03/05 08:35:42;;;;;;;;;27.00;25.00;;;;;8.69;100.00;101297.56;4951203;28;45539;-84
2023/03/05 08:38:07;;;;;;;;;22.00;18.67;;;;;8.76;100.00;101283.63;4974794;28;45796;-84
2023/03/05 08:40:33;;;;;;;;;30.33;24.33;;;;;8.87;100.00;101290.16;4987846;28;44801;-83
2023/03/05 08:42:58;;;;;;;;;23.67;23.00;;;;;8.91;100.00;101289.38;4970014;28;46621;-86
2023/03/05 08:45:26;;;;;;;;;25.00;22.67;;;;;8.98;100.00;101285.16;4969139;28;44788;-84
2023/03/05 08:47:56;;;;;;;;;24.00;20.33;;;;;8.98;100.00;101291.34;4969382;28;45389;-86
2023/03/05 08:50:22;;;;;;;;;29.00;22.67;;;;;8.90;100.00;101271.66;4946834;28;45569;-84
2023/03/05 08:52:48;;;;;;;;;23.33;19.00;;;;;9.01;100.00;101287.91;4931072;28;46911;-84
2023/03/05 08:55:14;;;;;;;;;28.00;24.33;;;;;9.14;100.00;101291.81;4932645;28;45485;-84
2023/03/05 08:57:39;;;;;;;;;24.33;22.33;;;;;9.23;100.00;101289.44;4933861;28;45433;-85
2023/03/05 09:00:06;;;;;;;;;19.33;18.33;;;;;9.23;100.00;101276.16;4932339;28;45368;-84
2023/03/05 09:02:32;;;;;;;;;28.33;25.00;;;;;9.33;100.00;101285.25;4949185;28;47140;-84
2023/03/05 09:04:58;;;;;;;;;27.33;23.00;;;;;9.42;100.00;101277.56;4932706;28;45236;-84
2023/03/05 09:07:24;;;;;;;;;28.67;23.00;;;;;9.47;100.00;101283.88;4932579;28;45694;-84
2023/03/05 09:09:49;;;;;;;;;24.00;22.33;;;;;9.52;100.00;101276.06;4931461;28;45581;-84
2023/03/05 09:12:15;;;;;;;;;20.33;13.00;;;;;9.59;100.00;101283.31;4948797;28;47093;-84
2023/03/05 09:14:41;;;;;;;;;23.67;21.33;;;;;9.62;100.00;101272.78;4931073;28;45524;-84
2023/03/05 09:17:07;;;;;;;;;19.33;18.00;;;;;9.69;100.00;101271.19;4931148;28;45461;-83
2023/03/05 09:19:33;;;;;;;;;28.33;23.00;;;;;9.77;100.00;101280.25;4949874;28;45483;-84
2023/03/05 09:21:58;;;;;;;;;23.67;20.67;;;;;9.80;100.00;101278.56;4932162;28;46678;-85
2023/03/05 09:24:24;;;;;;;;;24.67;18.33;;;;;9.82;100.00;101284.81;4948490;28;45433;-85
2023/03/05 09:26:49;;;;;;;;;28.33;24.33;;;;;9.81;100.00;101279.47;4931479;28;45456;-84
2023/03/05 09:29:16;;;;;;;;;20.33;18.67;;;;;9.77;100.00;101262.53;4932035;28;45377;-85
2023/03/05 09:31:42;;;;;;;;;27.33;24.00;;;;;9.87;100.00;101263.69;4932288;28;47096;-84
2023/03/05 09:34:10;;;;;;;;;19.00;19.00;;;;;10.04;100.00;101253.50;4932194;28;45330;-85
2023/03/05 09:36:36;;;;;;;;;25.67;21.33;;;;;10.11;100.00;101267.81;4931847;28;45511;-84
2023/03/05 09:39:05;;;;;;;;;26.67;24.33;;;;;10.10;100.00;101264.28;4931672;28;45537;-85
2023/03/05 09:41:55;;;;;;;;;27.33;25.33;;;;;10.16;100.00;101259.09;4932195;28;47762;-84
2023/03/05 09:44:49;;;;;;;;;25.00;19.00;;;;;10.20;100.00;101252.09;4931459;28;45798;-85
2023/03/05 09:47:29;;;;;;;;;26.00;21.67;;;;;10.26;100.00;101257.56;4913515;28;45382;-84
2023/03/05 09:50:11;;;;;;;;;21.67;20.67;;;;;10.22;100.00;101253.03;4912415;28;45647;-83
2023/03/05 09:52:42;;;;;;;;;32.67;26.33;;;;;10.17;100.00;101249.34;4912221;28;47802;-84
2023/03/05 09:55:13;;;;;;;;;29.00;25.67;;;;;10.24;100.00;101242.41;4929663;28;45323;-85
2023/03/05 09:57:44;;;;;;;;;25.67;22.33;;;;;10.24;100.00;101237.09;4913462;28;45516;-85
2023/03/05 10:00:32;;;;;;;;;24.67;19.33;;;;;10.31;100.00;101236.44;4911879;28;45495;-85
2023/03/05 10:03:03;;;;;;;;;16.33;16.33;;;;;10.35;100.00;101217.91;4914685;28;47972;-84
2023/03/05 10:06:05;;;;;;;;;23.33;22.67;;;;;10.44;100.00;101222.53;4934436;28;44821;-84
2023/03/05 10:09:02;;;;;;;;;13.67;6.00;;;;;10.51;100.00;101219.16;4919187;28;44892;-85
2023/03/05 10:11:28;;;;;;;;;20.00;18.00;;;;;10.44;100.00;101211.91;4929607;28;45339;-86
2023/03/05 10:13:53;;;;;;;;;13.67;13.67;;;;;10.37;100.00;101204.66;4917624;28;47197;-85
2023/03/05 10:17:00;;;;;;;;;17.67;14.67;;;;;10.43;100.00;101198.59;4934844;28;44857;-85
2023/03/05 10:19:50;;;;;;;;;20.00;14.67;;;;;10.49;100.00;101196.94;4931674;28;45437;-84
2023/03/05 10:22:24;;;;;;;;;19.67;15.33;;;;;10.51;100.00;101205.88;4915770;28;45256;-84
2023/03/05 10:25:14;;;;;;;;;17.00;14.67;;;;;10.57;100.00;101203.34;4915856;28;46878;-84
2023/03/05 10:28:09;;;;;;;;;16.67;16.00;;;;;10.62;100.00;101206.09;4932145;28;45589;-84
2023/03/05 10:30:54;;;;;;;;;15.00;14.67;;;;;10.56;100.00;101197.97;4916260;28;45587;-84
2023/03/05 10:33:51;;;;;;;;;13.00;11.67;;;;;10.51;100.00;101203.19;4917359;28;45416;-83
2023/03/05 10:36:45;;;;;;;;;17.00;14.67;;;;;10.40;100.00;101204.72;4915087;28;47009;-84
2023/03/05 10:39:38;;;;;;;;;15.00;12.33;;;;;10.38;100.00;101196.72;4943529;28;45476;-83
2023/03/05 10:42:10;;;;;;;;;13.33;9.67;;;;;10.24;100.00;101191.91;4957301;28;45420;-84
2023/03/05 10:44:51;;;;;;;;;19.33;15.00;;;;;10.24;100.00;101186.59;4916890;28;45410;-83
2023/03/05 10:47:35;;;;;;;;;9.67;9.00;;;;;10.38;100.00;101188.75;4933021;28;45454;-84
2023/03/05 10:50:00;;;;;;;;;9.33;9.00;;;;;10.35;100.00;101186.00;4933763;28;45698;-85
2023/03/05 10:52:39;;;;;;;;;15.67;14.67;;;;;10.46;100.00;101188.00;4931789;28;45610;-84
2023/03/05 10:55:17;;;;;;;;;17.67;15.33;;;;;10.48;100.00;101187.16;4932399;28;45362;-84
2023/03/05 10:57:43;;;;;;;;;16.33;14.33;;;;;10.40;100.00;101171.06;4915336;28;47544;-84
2023/03/05 11:00:22;;;;;;;;;15.00;10.00;;;;;10.59;100.00;101185.66;4915004;28;45219;-84
2023/03/05 11:03:01;;;;;;;;;14.33;12.67;;;;;10.57;100.00;101179.41;4931903;28;45432;-86
2023/03/05 11:05:55;;;;;;;;;13.00;12.33;;;;;10.56;100.00;101179.34;4914660;28;45324;-85
2023/03/05 11:08:31;;;;;;;;;13.00;13.00;;;;;10.44;100.00;101169.34;4932732;28;45600;-85
2023/03/05 11:11:18;;;;;;;;;13.00;13.00;;;;;10.47;100.00;101163.22;4914572;28;45613;-85
2023/03/05 11:13:43;;;;;;;;;16.00;15.67;;;;;10.46;100.00;101164.97;4931212;28;45415;-85
2023/03/05 11:16:17;;;;;;;;;18.00;15.33;;;;;10.55;100.00;101162.50;4931385;28;45350;-84
2023/03/05 11:18:45;;;;;;;;;15.33;13.67;;;;;10.53;100.00;101164.25;4915408;28;48642;-85
2023/03/05 11:21:18;;;;;;;;;18.67;15.00;;;;;10.62;100.00;101160.88;4932990;28;45552;-84
2023/03/05 11:24:09;;;;;;;;;20.00;13.00;;;;;10.71;100.00;101168.16;4915993;28;45151;-84
2023/03/05 11:26:35;;;;;;;;;14.33;13.33;;;;;10.68;100.00;101154.78;4932206;28;45609;-84